Tower, Minnesota
Current Conditions -  °F | °C
As of 1:55 PM on Friday 24 Oct 2014 (Local Time) from KCQM Reporting Station
Clear Clear  
Wind Chill: 68°   Ceiling: Unl
Heat Index: 68°   Visibility: 10mi
Dew Point: 43°   Wind: 13mph
Humidity: 40%   Direction: 230°SW
Pressure: 29.74"   Gusts: 17mph
Location:  47.81°N, 92.27°W
Report Text: KCQM 241855Z AUTO 23011G15KT 10SM CLR 20/06 A2974 RMK AO2
Loading
Personal Weather Stations






























Interactive Weather Map New forecast layout! Learn more

10-Day Weather Forecast

Advertisements
Track Severe Weather on mobile